METAR Data
IDs: Format: Raw Decoded Include TAF

Data at: 0608 UTC 19 Aug 2019

K6B0 172136Z AUTO 23011G18KT 180V260 10SM VCTS SCT042 SCT065 BKN070 23/21 A2996 RMK AO2 LTG DSNT SW AND W T02300211
K6B0 172118Z AUTO 00000KT 10SM VCTS CLR 23/21 A2995 RMK AO2 LTG DSNT SW AND W T02330214
K6B0 172056Z AUTO 10003KT 10SM CLR 24/22 A2994 RMK AO2 LTG DSNT W T02420218
K6B0 172055Z AUTO 10003KT 10SM CLR 24/22 A2994 RMK AO2 LTG DSNT W T02420218
K6B0 172036Z AUTO 00000KT 10SM CLR 26/20 A2994 RMK AO2 LTG DSNT SW AND W T02630203
K6B0 172035Z AUTO 00000KT 10SM CLR 26/20 A2994 RMK AO2 LTG DSNT SW AND W T02640204
K6B0 172016Z AUTO 18006KT 10SM CLR 27/20 A2993 RMK AO2 LTG DSNT W T02730198
K6B0 171958Z AUTO 19003KT 10SM CLR 27/20 A2994 RMK AO2 T02730197
K6B0 171936Z AUTO 17006KT 10SM SCT040 27/20 A2996 RMK AO2 LTG DSNT SW T02710196
K6B0 171935Z AUTO 18007KT 10SM SCT040 27/20 A2996 RMK AO2 LTG DSNT SW T02710197
K6B0 171915Z AUTO 18006KT 10SM SCT120 27/20 A2997 RMK AO2 T02680196
K6B0 171857Z AUTO 18008KT 10SM SCT120 27/20 A2997 RMK AO2 T02660197
K6B0 171839Z AUTO 17009KT 10SM SCT032 SCT039 27/19 A2998 RMK AO2 T02660194
K6B0 171816Z AUTO 19005KT 10SM SCT032 27/20 A2998 RMK AO2 T02650196
K6B0 171815Z AUTO 20005G14KT 10SM SCT032 27/20 A2998 RMK AO2 T02650195